Terminal Aerodrome Forecast
Issued by NWS

Current Version | Previous Version | Graphics & Text | Print | Product List | Glossary Off
Versions: 1 2 3 4 5 6 7 8 9 10 11 12 13 14 15 16

000
FTUS41 KILN 291700
TAFLCK
TAF
KLCK 291733Z 2918/3018 18010G18KT P6SM SCT150 BKN250
     FM292000 19014G24KT P6SM BKN150
     FM292300 19012KT P6SM VCSH SCT050 OVC100
     FM300100 22014KT P6SM -SHRA OVC040
     FM300600 26013KT P6SM OVC012
     FM301100 29012KT P6SM BKN012
     FM301400 29012KT P6SM BKN025
     FM301600 29012G20KT P6SM SCT040=

USA.gov is the U.S. government's official web portal to all federal, state and local government web resources and services.